createdAt,value
2022-10-29T00:00:28.735Z,1277.19
2022-10-29T00:01:28.793Z,1277.19
2022-10-29T00:02:28.858Z,1277.19
2022-10-29T00:03:28.685Z,1277.19
2022-10-29T00:04:28.676Z,1277.19
2022-10-29T00:05:28.666Z,1277.19
2022-10-29T00:06:28.665Z,1277.19
2022-10-29T00:07:28.634Z,1277.19
2022-10-29T00:08:28.622Z,1277.19
2022-10-29T00:09:28.611Z,1277.19
2022-10-29T00:10:28.609Z,1277.19
2022-10-29T00:11:28.607Z,1277.19
2022-10-29T00:12:28.575Z,1277.19
2022-10-29T00:13:28.563Z,1277.19
2022-10-29T00:14:28.555Z,1277.19
2022-10-29T00:15:28.556Z,1277.19
2022-10-29T00:16:28.550Z,1277.19
2022-10-29T00:17:28.531Z,1277.19
2022-10-29T00:18:28.501Z,1277.19
2022-10-29T00:19:28.497Z,1277.19
2022-10-29T00:20:28.486Z,1277.19
2022-10-29T00:21:28.475Z,1277.19
2022-10-29T00:22:28.479Z,1277.19
2022-10-29T00:23:28.459Z,1277.19
2022-10-29T00:24:28.440Z,1277.19
2022-10-29T00:25:28.442Z,1277.19
2022-10-29T00:26:28.436Z,1277.19
2022-10-29T00:27:28.405Z,1277.19
2022-10-29T00:28:28.404Z,1277.19
2022-10-29T00:29:28.388Z,1277.19
2022-10-29T00:30:28.367Z,1277.19
2022-10-29T00:31:28.466Z,1277.19
2022-10-29T00:32:28.341Z,1277.19
2022-10-29T00:33:28.336Z,1277.19
2022-10-29T00:34:28.323Z,1277.19
2022-10-29T00:35:28.318Z,1277.19
2022-10-29T00:36:28.330Z,1277.19
2022-10-29T00:37:28.339Z,1277.19
2022-10-29T00:38:28.284Z,1277.19
2022-10-29T00:39:28.270Z,1277.19
2022-10-29T00:40:28.262Z,1277.19
2022-10-29T00:41:28.272Z,1277.19
2022-10-29T00:42:28.238Z,1277.19
2022-10-29T00:43:28.262Z,1277.19
2022-10-29T00:44:28.216Z,1277.19
2022-10-29T00:45:28.205Z,1277.19
2022-10-29T00:46:28.302Z,1277.19
2022-10-29T00:47:28.206Z,1277.19
2022-10-29T00:48:28.193Z,1277.19
2022-10-29T00:49:28.159Z,1277.19
2022-10-29T00:50:28.147Z,1277.19
2022-10-29T00:51:28.176Z,1277.19
2022-10-29T00:52:28.133Z,1277.19
2022-10-29T00:53:28.137Z,1277.19
2022-10-29T00:54:28.118Z,1277.19
2022-10-29T00:55:28.084Z,1277.19
2022-10-29T00:56:28.076Z,1277.19
2022-10-29T00:57:28.080Z,1277.19
2022-10-29T00:58:28.056Z,1277.19
2022-10-29T00:59:28.034Z,1277.19
2022-10-29T01:00:28.071Z,1277.19
2022-10-29T01:01:28.130Z,1277.19
2022-10-29T01:02:28.233Z,1277.19
2022-10-29T01:03:28.015Z,1277.19
2022-10-29T01:04:27.989Z,1277.19
2022-10-29T01:05:27.986Z,1277.19
2022-10-29T01:06:27.961Z,1277.19
2022-10-29T01:07:27.947Z,1277.19
2022-10-29T01:08:27.930Z,1277.19
2022-10-29T01:09:27.925Z,1277.19
2022-10-29T01:10:27.908Z,1277.19
2022-10-29T01:11:27.965Z,1277.19
2022-10-29T01:12:27.908Z,1277.19
2022-10-29T01:13:27.904Z,1277.19
2022-10-29T01:14:27.874Z,1277.19
2022-10-29T01:15:27.855Z,1277.19
2022-10-29T01:16:27.842Z,1277.19
2022-10-29T01:17:28.690Z,1277.19
2022-10-29T01:18:27.852Z,1277.19
2022-10-29T01:19:27.919Z,1277.19
2022-10-29T01:20:27.797Z,1277.19
2022-10-29T01:21:27.816Z,1277.19
2022-10-29T01:22:27.778Z,1277.19
2022-10-29T01:23:27.765Z,1277.19
2022-10-29T01:24:27.764Z,1277.19
2022-10-29T01:25:27.741Z,1277.19
2022-10-29T01:26:27.747Z,1277.19
2022-10-29T01:27:27.717Z,1277.19
2022-10-29T01:28:27.750Z,1277.19
2022-10-29T01:29:27.696Z,1277.19
2022-10-29T01:30:27.695Z,1277.19
2022-10-29T01:31:27.702Z,1277.19
2022-10-29T01:32:27.652Z,1277.19
2022-10-29T01:33:27.656Z,1277.19
2022-10-29T01:34:27.635Z,1277.19
2022-10-29T01:35:27.648Z,1277.19
2022-10-29T01:36:27.609Z,1277.19
2022-10-29T01:37:27.614Z,1277.19
2022-10-29T01:38:27.587Z,1277.19
2022-10-29T01:39:27.575Z,1277.19
2022-10-29T01:40:27.571Z,1277.19
2022-10-29T01:41:27.573Z,1277.19
2022-10-29T01:42:27.544Z,1277.19
2022-10-29T01:43:27.543Z,1277.19
2022-10-29T01:44:27.519Z,1277.19
2022-10-29T01:45:27.508Z,1277.19
2022-10-29T01:46:27.496Z,1277.19
2022-10-29T01:47:27.503Z,1277.19
2022-10-29T01:48:30.410Z,1277.19
2022-10-29T01:49:28.465Z,1277.19
2022-10-29T01:50:27.504Z,1277.19
2022-10-29T01:51:27.457Z,1277.19
2022-10-29T01:52:27.434Z,1277.19
2022-10-29T01:53:27.431Z,1277.19
2022-10-29T01:54:27.428Z,1277.19
2022-10-29T01:55:27.399Z,1277.19
2022-10-29T01:56:27.384Z,1277.19
2022-10-29T01:57:27.375Z,1277.19
2022-10-29T01:58:27.365Z,1277.19
2022-10-29T01:59:35.771Z,1277.19
2022-10-29T02:00:28.402Z,1277.19
2022-10-29T02:01:27.412Z,1277.19
2022-10-29T02:02:27.346Z,1277.19
2022-10-29T02:03:27.305Z,1277.19
2022-10-29T02:04:27.301Z,1277.19
2022-10-29T02:05:27.275Z,1277.19
2022-10-29T02:06:27.273Z,1277.19
2022-10-29T02:07:27.271Z,1277.19
2022-10-29T02:08:27.265Z,1277.19
2022-10-29T02:09:27.255Z,1277.19
2022-10-29T02:10:27.221Z,1277.19
2022-10-29T02:11:27.216Z,1277.19
2022-10-29T02:12:27.195Z,1277.19
2022-10-29T02:13:27.195Z,1277.19
2022-10-29T02:14:27.190Z,1277.19
2022-10-29T02:15:27.177Z,1277.19
2022-10-29T02:16:27.156Z,1277.19
2022-10-29T02:17:27.143Z,1277.19
2022-10-29T02:18:27.146Z,1277.19
2022-10-29T02:19:27.137Z,1277.19
2022-10-29T02:20:27.102Z,1277.19
2022-10-29T02:21:27.093Z,1277.19
2022-10-29T02:22:27.078Z,1277.19
2022-10-29T02:23:27.092Z,1277.19
2022-10-29T02:24:27.064Z,1277.19
2022-10-29T02:25:27.125Z,1277.19
2022-10-29T02:26:27.035Z,1277.19
2022-10-29T02:27:27.023Z,1277.19
2022-10-29T02:28:27.013Z,1277.19
2022-10-29T02:29:27.018Z,1277.19
2022-10-29T02:30:26.992Z,1277.19
2022-10-29T02:31:26.983Z,1277.19
2022-10-29T02:32:26.986Z,1277.19
2022-10-29T02:33:26.962Z,1277.19
2022-10-29T02:34:26.970Z,1277.19
2022-10-29T02:35:26.927Z,1277.19
2022-10-29T02:36:26.932Z,1277.19
2022-10-29T02:37:26.908Z,1277.19
2022-10-29T02:38:26.915Z,1277.19
2022-10-29T02:39:26.906Z,1277.19
2022-10-29T02:40:26.874Z,1277.19
2022-10-29T02:41:26.863Z,1277.19
2022-10-29T02:42:26.850Z,1277.19
2022-10-29T02:43:26.859Z,1277.19
2022-10-29T02:44:26.830Z,1277.19
2022-10-29T02:45:26.817Z,1277.19
2022-10-29T02:46:26.835Z,1277.19
2022-10-29T02:47:26.802Z,1277.19
2022-10-29T02:48:26.784Z,1277.19
2022-10-29T02:49:26.800Z,1277.19
2022-10-29T02:50:26.774Z,1277.19
2022-10-29T02:51:26.747Z,1277.19
2022-10-29T02:52:26.743Z,1277.19
2022-10-29T02:53:26.724Z,1277.19
2022-10-29T02:54:26.718Z,1277.19
2022-10-29T02:55:26.737Z,1277.19
2022-10-29T02:56:26.697Z,1277.19
2022-10-29T02:57:26.682Z,1277.19
2022-10-29T02:58:26.696Z,1277.19
2022-10-29T02:59:26.682Z,1277.19
2022-10-29T03:00:26.668Z,1277.19
2022-10-29T03:01:26.781Z,1277.19
2022-10-29T03:02:30.499Z,1277.19
2022-10-29T03:03:26.624Z,1277.19
2022-10-29T03:04:26.629Z,1277.19
2022-10-29T03:05:26.597Z,1277.19
2022-10-29T03:06:26.583Z,1277.19
2022-10-29T03:07:26.573Z,1277.19
2022-10-29T03:08:26.562Z,1277.19
2022-10-29T03:09:26.573Z,1277.19
2022-10-29T03:10:26.539Z,1277.19
2022-10-29T03:11:26.565Z,1277.19
2022-10-29T03:12:26.521Z,1277.19
2022-10-29T03:13:26.721Z,1277.19
2022-10-29T03:14:26.523Z,1277.19
2022-10-29T03:15:26.488Z,1277.19
2022-10-29T03:16:26.490Z,1277.19
2022-10-29T03:17:26.472Z,1277.19
2022-10-29T03:18:26.465Z,1277.19
2022-10-29T03:19:26.445Z,1277.19
2022-10-29T03:20:26.434Z,1277.19
2022-10-29T03:21:26.444Z,1277.19
2022-10-29T03:22:26.407Z,1277.19
2022-10-29T03:23:26.405Z,1277.19
2022-10-29T03:24:26.390Z,1277.19
2022-10-29T03:25:26.392Z,1277.19
2022-10-29T03:26:26.367Z,1277.19
2022-10-29T03:27:26.371Z,1277.19
2022-10-29T03:28:26.367Z,1277.19
2022-10-29T03:29:26.342Z,1277.19
2022-10-29T03:30:26.326Z,1277.19
2022-10-29T03:31:26.316Z,1277.19
2022-10-29T03:32:26.323Z,1277.19
2022-10-29T03:33:26.288Z,1277.19
2022-10-29T03:34:26.416Z,1277.19
2022-10-29T03:35:26.467Z,1277.19
2022-10-29T03:36:26.331Z,1277.19
2022-10-29T03:37:26.244Z,1277.19
2022-10-29T03:38:26.246Z,1277.19
2022-10-29T03:39:26.213Z,1277.19
2022-10-29T03:40:26.205Z,1277.19
2022-10-29T03:41:26.204Z,1277.19
2022-10-29T03:42:26.202Z,1277.19
2022-10-29T03:43:26.182Z,1277.19
2022-10-29T03:44:26.249Z,1277.19
2022-10-29T03:45:26.144Z,1277.19
2022-10-29T03:46:26.142Z,1277.19
2022-10-29T03:47:26.125Z,1277.19
2022-10-29T03:48:26.117Z,1277.19
2022-10-29T03:49:26.126Z,1277.19
2022-10-29T03:50:26.087Z,1277.19
2022-10-29T03:51:26.080Z,1277.19
2022-10-29T03:52:26.067Z,1277.19
2022-10-29T03:53:26.071Z,1277.19
2022-10-29T03:54:26.039Z,1277.19
2022-10-29T03:55:26.024Z,1277.19
2022-10-29T03:56:26.019Z,1277.19
2022-10-29T03:57:26.028Z,1277.19
2022-10-29T03:58:36.035Z,1277.19
2022-10-29T03:59:26.137Z,1277.19
2022-10-29T04:00:26.083Z,1277.19
2022-10-29T04:01:26.162Z,1277.19
2022-10-29T04:02:26.104Z,1277.19
2022-10-29T04:03:25.970Z,1277.19
2022-10-29T04:04:25.981Z,1277.19
2022-10-29T04:05:25.946Z,1277.19
2022-10-29T04:06:25.935Z,1277.19
2022-10-29T04:07:25.952Z,1277.19
2022-10-29T04:08:25.891Z,1277.19
2022-10-29T04:09:25.887Z,1277.19
2022-10-29T04:10:25.904Z,1277.19
2022-10-29T04:11:25.861Z,1277.19
2022-10-29T04:13:37.944Z,957.38
2022-10-29T04:14:42.876Z,957.39
2022-10-29T04:15:38.944Z,957.39
2022-10-29T04:16:37.825Z,957.44
2022-10-29T04:17:37.848Z,957.48
2022-10-29T04:18:37.781Z,957.50
2022-10-29T04:19:37.806Z,957.49
2022-10-29T04:21:26.576Z,957.54
2022-10-29T04:28:41.291Z,957.57
2022-10-29T04:28:43.116Z,957.53
2022-10-29T04:29:38.657Z,957.54
2022-10-29T04:30:37.649Z,957.52
2022-10-29T04:31:37.629Z,957.56
2022-10-29T04:32:37.656Z,957.54
2022-10-29T04:33:37.632Z,957.54
2022-10-29T04:34:37.584Z,957.55
2022-10-29T04:35:37.602Z,957.55
2022-10-29T04:36:37.563Z,957.52
2022-10-29T04:37:37.593Z,957.45
2022-10-29T04:38:37.546Z,957.46
2022-10-29T04:39:37.557Z,957.43
2022-10-29T04:40:37.537Z,957.44
2022-10-29T04:41:37.590Z,957.46
2022-10-29T04:42:37.587Z,957.43
2022-10-29T04:43:37.510Z,957.51
2022-10-29T04:44:37.490Z,957.49
2022-10-29T04:45:37.474Z,957.52
2022-10-29T04:46:37.460Z,957.50
2022-10-29T04:47:37.487Z,957.53
2022-10-29T04:48:37.488Z,957.55
2022-10-29T04:49:37.437Z,957.57
2022-10-29T04:50:37.469Z,957.53
2022-10-29T04:51:37.387Z,957.54
2022-10-29T04:52:37.383Z,957.51
2022-10-29T04:53:37.378Z,957.47
2022-10-29T04:54:37.377Z,957.52
2022-10-29T04:55:37.349Z,957.55
2022-10-29T04:56:37.342Z,957.56
2022-10-29T04:57:37.330Z,957.55
2022-10-29T04:58:37.306Z,957.50
2022-10-29T04:59:37.369Z,957.49
2022-10-29T05:00:37.415Z,957.50
2022-10-29T05:01:37.350Z,957.46
2022-10-29T05:02:37.390Z,957.46
2022-10-29T05:03:38.774Z,957.45
2022-10-29T05:04:37.340Z,957.48
2022-10-29T05:05:37.272Z,957.44
2022-10-29T05:06:37.281Z,957.45
2022-10-29T05:07:37.265Z,957.39
2022-10-29T05:08:37.254Z,957.39
2022-10-29T05:09:37.306Z,957.39
2022-10-29T05:10:37.236Z,957.39
2022-10-29T05:11:37.254Z,957.40
2022-10-29T05:12:37.208Z,957.33
2022-10-29T05:13:37.172Z,957.41
2022-10-29T05:14:37.219Z,957.40
2022-10-29T05:15:37.220Z,957.39
2022-10-29T05:16:37.149Z,957.39
2022-10-29T05:17:37.145Z,957.36
2022-10-29T05:18:37.138Z,957.38
2022-10-29T05:19:37.159Z,957.41
2022-10-29T05:20:37.166Z,957.44
2022-10-29T05:21:37.149Z,957.42
2022-10-29T05:22:37.107Z,957.45
2022-10-29T05:23:44.737Z,957.49
2022-10-29T05:24:37.156Z,957.44
2022-10-29T05:25:37.072Z,957.44
2022-10-29T05:26:37.105Z,957.47
2022-10-29T05:27:37.091Z,957.49
2022-10-29T05:28:37.038Z,957.50
2022-10-29T05:29:37.001Z,957.48
2022-10-29T05:30:36.969Z,957.51
2022-10-29T05:31:36.947Z,957.53
2022-10-29T05:32:37.033Z,957.54
2022-10-29T05:33:36.928Z,957.55
2022-10-29T05:34:39.449Z,957.51
2022-10-29T05:35:36.900Z,957.52
2022-10-29T05:36:36.910Z,957.52
2022-10-29T05:37:44.512Z,957.55
2022-10-29T05:38:36.985Z,957.56
2022-10-29T05:39:36.911Z,957.57
2022-10-29T05:40:36.876Z,957.59
2022-10-29T05:41:36.952Z,957.56
2022-10-29T05:42:36.814Z,957.57
2022-10-29T05:43:36.810Z,957.54
2022-10-29T05:44:36.801Z,957.56
2022-10-29T05:45:36.783Z,957.53
2022-10-29T05:46:36.754Z,957.52
2022-10-29T05:47:36.741Z,957.53
2022-10-29T05:48:36.728Z,957.49
2022-10-29T05:49:36.718Z,957.50
2022-10-29T05:50:36.735Z,957.57
2022-10-29T05:51:36.722Z,957.50
2022-10-29T05:52:36.681Z,957.54
2022-10-29T05:53:36.673Z,957.49
2022-10-29T05:54:36.666Z,957.52
2022-10-29T05:55:36.655Z,957.51
2022-10-29T05:56:36.664Z,957.56
2022-10-29T05:57:36.629Z,957.57
2022-10-29T05:58:36.635Z,957.58
2022-10-29T05:59:36.603Z,957.59
2022-10-29T06:00:36.613Z,957.60
2022-10-29T06:01:36.732Z,957.61
2022-10-29T06:02:36.657Z,957.61
2022-10-29T06:03:36.560Z,957.64
2022-10-29T06:04:36.571Z,957.64
2022-10-29T06:05:36.567Z,957.62
2022-10-29T06:06:36.598Z,957.58
2022-10-29T06:07:36.531Z,957.55
2022-10-29T06:08:36.524Z,957.57
2022-10-29T06:09:36.500Z,957.58
2022-10-29T06:10:36.562Z,957.54
2022-10-29T06:11:36.492Z,957.53
2022-10-29T06:12:36.466Z,957.54
2022-10-29T06:13:36.466Z,957.55
2022-10-29T06:14:36.430Z,957.53
2022-10-29T06:15:36.486Z,957.58
2022-10-29T06:16:36.414Z,957.58
2022-10-29T06:17:36.419Z,957.58
2022-10-29T06:18:36.406Z,957.58
2022-10-29T06:19:36.402Z,957.56
2022-10-29T06:20:36.387Z,957.61
2022-10-29T06:21:36.501Z,957.61
2022-10-29T06:22:36.372Z,957.65
2022-10-29T06:23:36.329Z,957.65
2022-10-29T06:24:36.320Z,957.68
2022-10-29T06:25:36.342Z,957.67
2022-10-29T06:26:36.292Z,957.70
2022-10-29T06:27:36.304Z,957.66
2022-10-29T06:28:36.348Z,957.73
2022-10-29T06:29:36.261Z,957.68
2022-10-29T06:30:36.256Z,957.74
2022-10-29T06:31:36.276Z,957.76
2022-10-29T06:32:36.230Z,957.74
2022-10-29T06:33:36.233Z,957.77
2022-10-29T06:34:36.202Z,957.76
2022-10-29T06:35:36.262Z,957.78
2022-10-29T06:36:36.193Z,957.82
2022-10-29T06:37:36.168Z,957.86
2022-10-29T06:38:36.184Z,957.91
2022-10-29T06:39:36.163Z,957.95
2022-10-29T06:40:36.700Z,957.95
2022-10-29T06:41:36.130Z,957.95
2022-10-29T06:42:36.114Z,957.99
2022-10-29T06:43:36.119Z,957.98
2022-10-29T06:44:36.107Z,957.97
2022-10-29T06:45:36.110Z,957.98
2022-10-29T06:46:36.085Z,957.99
2022-10-29T06:47:36.067Z,957.96
2022-10-29T06:48:36.042Z,957.96
2022-10-29T06:49:36.053Z,957.97
2022-10-29T06:50:36.041Z,957.99
2022-10-29T06:51:36.008Z,958.01
2022-10-29T06:52:36.014Z,957.99
2022-10-29T06:53:35.986Z,957.98
2022-10-29T06:54:36.011Z,957.98
2022-10-29T06:55:36.021Z,958.00
2022-10-29T06:56:35.960Z,958.05
2022-10-29T06:57:35.942Z,958.00
2022-10-29T06:58:35.947Z,957.98
2022-10-29T06:59:35.918Z,958.01
2022-10-29T07:00:36.138Z,958.02
2022-10-29T07:01:36.194Z,958.00
2022-10-29T07:02:35.909Z,958.01
2022-10-29T07:03:35.930Z,958.00
2022-10-29T07:04:35.875Z,958.00
2022-10-29T07:05:35.896Z,957.93
2022-10-29T07:06:35.921Z,957.97
2022-10-29T07:07:35.831Z,957.99
2022-10-29T07:08:35.812Z,957.97
2022-10-29T07:09:35.826Z,957.94
2022-10-29T07:10:35.818Z,957.97
2022-10-29T07:11:35.781Z,957.96
2022-10-29T07:12:35.784Z,957.91
2022-10-29T07:13:35.758Z,957.98
2022-10-29T07:14:35.748Z,957.93
2022-10-29T07:15:35.762Z,957.93
2022-10-29T07:16:35.726Z,957.90
2022-10-29T07:17:35.761Z,957.90
2022-10-29T07:18:35.717Z,957.93
2022-10-29T07:19:35.696Z,957.91
2022-10-29T07:20:35.690Z,957.92
2022-10-29T07:21:35.685Z,957.93
2022-10-29T07:22:35.662Z,957.95
2022-10-29T07:23:35.647Z,957.97
2022-10-29T07:24:35.656Z,957.95
2022-10-29T07:25:35.625Z,957.98
2022-10-29T07:26:35.641Z,958.01
2022-10-29T07:27:35.646Z,957.98
2022-10-29T07:28:35.588Z,957.98
2022-10-29T07:29:35.584Z,957.94
2022-10-29T07:30:35.565Z,957.96
2022-10-29T07:31:35.647Z,957.92
2022-10-29T07:32:35.557Z,957.91
2022-10-29T07:33:35.569Z,957.91
2022-10-29T07:34:35.516Z,957.95
2022-10-29T07:35:36.366Z,957.94
2022-10-29T07:36:35.521Z,957.90
2022-10-29T07:37:35.488Z,957.91
2022-10-29T07:38:35.506Z,957.91
2022-10-29T07:39:35.459Z,957.94
2022-10-29T07:40:35.492Z,957.96
2022-10-29T07:41:35.434Z,958.00
2022-10-29T07:42:35.436Z,957.99
2022-10-29T07:43:35.895Z,958.01
2022-10-29T07:44:35.400Z,958.01
2022-10-29T07:45:36.827Z,958.03
2022-10-29T07:46:36.375Z,957.95
2022-10-29T07:47:35.388Z,957.94
2022-10-29T07:48:35.355Z,957.92
2022-10-29T07:49:35.348Z,957.92
2022-10-29T07:50:35.331Z,957.93
2022-10-29T07:51:35.346Z,957.92
2022-10-29T07:52:35.974Z,957.89
2022-10-29T07:53:35.310Z,1277.19
2022-10-29T07:54:35.293Z,1277.19
2022-10-29T07:55:35.287Z,1277.19
2022-10-29T07:56:35.421Z,1277.19
2022-10-29T07:57:35.396Z,1277.19
2022-10-29T07:58:35.274Z,1277.19
2022-10-29T07:59:35.503Z,1277.19
2022-10-29T08:00:35.249Z,1277.19
2022-10-29T08:01:35.316Z,1277.19
2022-10-29T08:02:35.215Z,1277.19
2022-10-29T08:03:35.213Z,1277.19
2022-10-29T08:04:35.274Z,1277.19
2022-10-29T08:05:35.162Z,1277.19
2022-10-29T08:06:35.175Z,1277.19
2022-10-29T08:07:35.132Z,1277.19
2022-10-29T08:08:35.147Z,1277.19
2022-10-29T08:09:35.112Z,1277.19
2022-10-29T08:10:35.125Z,1277.19
2022-10-29T08:11:35.128Z,1277.19
2022-10-29T08:12:35.174Z,1277.19
2022-10-29T08:13:35.653Z,1277.19
2022-10-29T08:14:35.153Z,1277.19
2022-10-29T08:15:35.161Z,1277.19
2022-10-29T08:16:35.242Z,1277.19
2022-10-29T08:17:35.100Z,1277.19
2022-10-29T08:18:35.080Z,1277.19
2022-10-29T08:19:35.132Z,1277.19
2022-10-29T08:20:35.078Z,1277.19
2022-10-29T08:21:37.980Z,1277.19
2022-10-29T08:22:34.997Z,1277.19
2022-10-29T08:23:35.032Z,1277.19
2022-10-29T08:24:35.069Z,1277.19
2022-10-29T08:25:35.025Z,1277.19
2022-10-29T08:26:35.004Z,1277.19
2022-10-29T08:27:34.977Z,1277.19
2022-10-29T08:28:35.971Z,1277.19
2022-10-29T08:29:34.953Z,1277.19
2022-10-29T08:30:34.888Z,1277.19
2022-10-29T08:31:35.083Z,1277.19
2022-10-29T08:32:34.888Z,1277.19
2022-10-29T08:33:34.873Z,1277.19
2022-10-29T08:34:34.859Z,1277.19
2022-10-29T08:35:34.904Z,1277.19
2022-10-29T08:36:34.809Z,1277.19
2022-10-29T08:37:34.839Z,1277.19
2022-10-29T08:38:34.880Z,1277.19
2022-10-29T08:39:34.793Z,1277.19
2022-10-29T08:40:34.825Z,1277.19
2022-10-29T08:41:34.807Z,1277.19
2022-10-29T08:42:34.776Z,1277.19
2022-10-29T08:43:34.755Z,1277.19
2022-10-29T08:44:34.778Z,1277.19
2022-10-29T08:45:34.699Z,1277.19
2022-10-29T08:46:34.697Z,1277.19
2022-10-29T08:47:34.685Z,1277.19
2022-10-29T08:48:34.690Z,1277.19
2022-10-29T08:49:34.949Z,1277.19
2022-10-29T08:50:34.646Z,1277.19
2022-10-29T08:51:34.637Z,1277.19
2022-10-29T08:52:34.622Z,1277.19
2022-10-29T08:53:34.610Z,1277.19
2022-10-29T08:54:34.646Z,1277.19
2022-10-29T08:55:34.599Z,1277.19
2022-10-29T08:56:34.665Z,1277.19
2022-10-29T08:57:34.622Z,1277.19
2022-10-29T08:58:34.608Z,1277.19
2022-10-29T08:59:34.581Z,1277.19
2022-10-29T09:00:34.579Z,1277.19
2022-10-29T09:01:34.616Z,1277.19
2022-10-29T09:02:34.506Z,1277.19
2022-10-29T09:03:34.500Z,1277.19
2022-10-29T09:04:34.500Z,1277.19
2022-10-29T09:05:34.511Z,1277.19
2022-10-29T09:06:34.471Z,1277.19
2022-10-29T09:07:34.510Z,1277.19
2022-10-29T09:08:34.478Z,1277.19
2022-10-29T09:09:34.454Z,1277.19
2022-10-29T09:10:34.447Z,1277.19
2022-10-29T09:11:34.415Z,1277.19
2022-10-29T09:12:34.435Z,1277.19
2022-10-29T09:13:34.407Z,1277.19
2022-10-29T09:14:34.370Z,1277.19
2022-10-29T09:15:34.451Z,1277.19
2022-10-29T09:16:34.400Z,1277.19
2022-10-29T09:17:34.356Z,1277.19
2022-10-29T09:18:34.360Z,1277.19
2022-10-29T09:19:34.310Z,1277.19
2022-10-29T09:20:34.340Z,1277.19
2022-10-29T09:21:34.372Z,1277.19
2022-10-29T09:22:34.294Z,1277.19
2022-10-29T09:23:34.308Z,1277.19
2022-10-29T09:24:34.316Z,1277.19
2022-10-29T09:25:34.296Z,1277.19
2022-10-29T09:26:34.234Z,1277.19
2022-10-29T09:27:34.260Z,1277.19
2022-10-29T09:28:34.215Z,1277.19
2022-10-29T09:29:34.203Z,1277.19
2022-10-29T09:30:34.212Z,1277.19
2022-10-29T09:31:34.340Z,1277.19
2022-10-29T09:32:34.168Z,1277.19
2022-10-29T09:33:34.144Z,1277.19
2022-10-29T09:34:34.155Z,1277.19
2022-10-29T09:35:34.218Z,1277.19
2022-10-29T09:36:34.176Z,1277.19
2022-10-29T09:37:34.157Z,1277.19
2022-10-29T09:38:34.890Z,1277.19
2022-10-29T09:39:34.584Z,1277.19
2022-10-29T09:40:34.944Z,1277.19
2022-10-29T09:41:34.107Z,1277.19
2022-10-29T09:42:34.103Z,1277.19
2022-10-29T09:43:34.074Z,1277.19
2022-10-29T09:44:34.034Z,1277.19
2022-10-29T09:45:34.058Z,1277.19
2022-10-29T09:46:34.033Z,1277.19
2022-10-29T09:47:34.032Z,1277.19
2022-10-29T09:48:33.982Z,1277.19
2022-10-29T09:49:33.987Z,1277.19
2022-10-29T09:50:33.981Z,1277.19
2022-10-29T09:51:33.950Z,1277.19
2022-10-29T09:52:33.973Z,1277.19
2022-10-29T09:53:33.963Z,1277.19
2022-10-29T09:54:34.045Z,1277.19
2022-10-29T09:55:33.911Z,1277.19
2022-10-29T09:56:33.906Z,1277.19
2022-10-29T09:57:33.892Z,1277.19
2022-10-29T09:58:36.515Z,1277.19
2022-10-29T09:59:33.844Z,1277.19
2022-10-29T10:00:33.833Z,1277.19
2022-10-29T10:01:33.884Z,1277.19
2022-10-29T10:02:33.873Z,1277.19
2022-10-29T10:03:33.833Z,1277.19
2022-10-29T10:04:33.793Z,1277.19
2022-10-29T10:05:33.781Z,1277.19
2022-10-29T10:06:36.518Z,1277.19
2022-10-29T10:07:34.748Z,1277.19
2022-10-29T10:08:33.762Z,1277.19
2022-10-29T10:09:33.781Z,1277.19
2022-10-29T10:10:33.720Z,1277.19
2022-10-29T10:11:33.714Z,1277.19
2022-10-29T10:12:33.702Z,1277.19
2022-10-29T10:13:33.697Z,1277.19
2022-10-29T10:14:33.694Z,1277.19
2022-10-29T10:15:33.675Z,1277.19
2022-10-29T10:16:33.652Z,1277.19
2022-10-29T10:17:33.645Z,1277.19
2022-10-29T10:18:33.751Z,1277.19
2022-10-29T10:19:33.636Z,1277.19
2022-10-29T10:20:33.605Z,1277.19
2022-10-29T10:21:33.691Z,1277.19
2022-10-29T10:22:33.594Z,1277.19
2022-10-29T10:23:33.596Z,1277.19
2022-10-29T10:24:33.575Z,1277.19
2022-10-29T10:25:33.587Z,1277.19
2022-10-29T10:26:33.538Z,1277.19
2022-10-29T10:27:33.531Z,1277.19
2022-10-29T10:28:33.533Z,1277.19
2022-10-29T10:29:33.527Z,1277.19
2022-10-29T10:30:33.494Z,1277.19
2022-10-29T10:31:33.494Z,1277.19
2022-10-29T10:32:33.486Z,1277.19
2022-10-29T10:33:33.455Z,1277.19
2022-10-29T10:34:33.452Z,1277.19
2022-10-29T10:35:33.441Z,1277.19
2022-10-29T10:36:33.453Z,1277.19
2022-10-29T10:37:33.439Z,1277.19
2022-10-29T10:38:33.414Z,1277.19
2022-10-29T10:39:33.428Z,1277.19
2022-10-29T10:40:33.383Z,1277.19
2022-10-29T10:41:33.368Z,1277.19
2022-10-29T10:42:33.393Z,1277.19
2022-10-29T10:43:33.343Z,1277.19
2022-10-29T10:44:33.330Z,1277.19
2022-10-29T10:45:33.334Z,1277.19
2022-10-29T10:46:33.308Z,1277.19
2022-10-29T10:47:33.365Z,1277.19
2022-10-29T10:48:34.144Z,1277.19
2022-10-29T10:49:33.271Z,1277.19
2022-10-29T10:50:33.291Z,1277.19
2022-10-29T10:51:33.250Z,1277.19
2022-10-29T10:52:33.245Z,1277.19
2022-10-29T10:53:33.245Z,1277.19
2022-10-29T10:54:33.387Z,1277.19
2022-10-29T10:55:33.201Z,1277.19
2022-10-29T10:56:33.199Z,1277.19
2022-10-29T10:57:33.178Z,1277.19
2022-10-29T10:58:33.209Z,1277.19
2022-10-29T10:59:33.159Z,1277.19
2022-10-29T11:00:33.155Z,1277.19
2022-10-29T11:01:33.260Z,1277.19
2022-10-29T11:02:33.263Z,1277.19
2022-10-29T11:03:33.158Z,1277.19
2022-10-29T11:04:33.117Z,1277.19
2022-10-29T11:05:33.136Z,1277.19
2022-10-29T11:06:33.111Z,1277.19
2022-10-29T11:07:33.068Z,1277.19
2022-10-29T11:08:33.065Z,1277.19
2022-10-29T11:09:33.077Z,1277.19
2022-10-29T11:10:33.074Z,1277.19
2022-10-29T11:11:33.022Z,1277.19
2022-10-29T11:12:33.014Z,1277.19
2022-10-29T11:13:33.040Z,1277.19
2022-10-29T11:14:33.011Z,1277.19
2022-10-29T11:15:32.982Z,1277.19
2022-10-29T11:16:33.000Z,1277.19
2022-10-29T11:17:32.956Z,1277.19
2022-10-29T11:18:32.943Z,1277.19
2022-10-29T11:19:35.923Z,1277.19
2022-10-29T11:20:33.094Z,1277.19
2022-10-29T11:21:32.914Z,1277.19
2022-10-29T11:22:32.907Z,1277.19
2022-10-29T11:23:32.932Z,1277.19
2022-10-29T11:24:32.947Z,1277.19
2022-10-29T11:25:32.882Z,1277.19
2022-10-29T11:26:32.867Z,1277.19
2022-10-29T11:27:32.837Z,1277.19
2022-10-29T11:28:32.827Z,1277.19
2022-10-29T11:29:32.818Z,1277.19
2022-10-29T11:30:32.821Z,1277.19
2022-10-29T11:31:32.794Z,1277.19
2022-10-29T11:32:32.788Z,1277.19
2022-10-29T11:33:32.769Z,1277.19
2022-10-29T11:34:32.777Z,1277.19
2022-10-29T11:35:32.771Z,1277.19
2022-10-29T11:36:32.741Z,1277.19
2022-10-29T11:37:32.729Z,1277.19
2022-10-29T11:38:40.342Z,1277.19
2022-10-29T11:39:32.712Z,1277.19
2022-10-29T11:40:32.689Z,1277.19
2022-10-29T11:41:32.693Z,1277.19
2022-10-29T11:42:32.682Z,1277.19
2022-10-29T11:43:32.671Z,1277.19
2022-10-29T11:44:32.672Z,1277.19
2022-10-29T11:45:32.630Z,1277.19
2022-10-29T11:46:32.619Z,1277.19
2022-10-29T11:47:32.629Z,1277.19
2022-10-29T11:48:32.642Z,1277.19
2022-10-29T11:49:32.589Z,1277.19
2022-10-29T11:50:32.578Z,1277.19
2022-10-29T11:51:32.584Z,1277.19
2022-10-29T11:52:35.562Z,1277.19
2022-10-29T11:53:32.541Z,1277.19
2022-10-29T11:54:32.548Z,1277.19
2022-10-29T11:55:32.546Z,1277.19
2022-10-29T11:56:32.501Z,1277.19
2022-10-29T11:57:32.496Z,1277.19
2022-10-29T11:58:36.601Z,1277.19
2022-10-29T11:59:33.468Z,1277.19
2022-10-29T12:00:32.481Z,1277.19
2022-10-29T12:01:32.526Z,1277.19
2022-10-29T12:02:32.456Z,1277.19
2022-10-29T12:03:32.514Z,1277.19
2022-10-29T12:04:32.418Z,1277.19
2022-10-29T12:05:32.416Z,1277.19
2022-10-29T12:06:32.397Z,1277.19
2022-10-29T12:07:32.575Z,1277.19
2022-10-29T12:08:32.378Z,1277.19
2022-10-29T12:09:32.365Z,1277.19
2022-10-29T12:10:32.391Z,1277.19
2022-10-29T12:11:32.339Z,1277.19
2022-10-29T12:12:32.404Z,1277.19
2022-10-29T12:13:32.317Z,1277.19
2022-10-29T12:14:32.341Z,1277.19
2022-10-29T12:15:32.320Z,1277.19
2022-10-29T12:16:32.293Z,1277.19
2022-10-29T12:17:32.339Z,1277.19
2022-10-29T12:18:32.255Z,1277.19
2022-10-29T12:19:32.259Z,1277.19